sensor_id;sensor_type;location;lat;lon;timestamp;pressure;altitude;pressure_sealevel;temperature
54026;BMP280;74404;50.662;3.398;2024-03-25T00:01:26;100247.91;;;8.71
54026;BMP280;74404;50.662;3.398;2024-03-25T00:03:51;100247.59;;;8.73
54026;BMP280;74404;50.662;3.398;2024-03-25T00:06:17;100241.06;;;8.70
54026;BMP280;74404;50.662;3.398;2024-03-25T00:08:42;100241.34;;;8.69
54026;BMP280;74404;50.662;3.398;2024-03-25T00:11:08;100232.81;;;8.72
54026;BMP280;74404;50.662;3.398;2024-03-25T00:13:33;100244.78;;;8.69
54026;BMP280;74404;50.662;3.398;2024-03-25T00:15:59;100239.47;;;8.69
54026;BMP280;74404;50.662;3.398;2024-03-25T00:18:24;100237.59;;;8.70
54026;BMP280;74404;50.662;3.398;2024-03-25T00:20:50;100228.66;;;8.66
54026;BMP280;74404;50.662;3.398;2024-03-25T00:23:16;100236.34;;;8.67
54026;BMP280;74404;50.662;3.398;2024-03-25T00:25:42;100232.59;;;8.68
54026;BMP280;74404;50.662;3.398;2024-03-25T00:28:07;100240.03;;;8.66
54026;BMP280;74404;50.662;3.398;2024-03-25T00:30:33;100240.31;;;8.65
54026;BMP280;74404;50.662;3.398;2024-03-25T00:32:59;100242.19;;;8.64
54026;BMP280;74404;50.662;3.398;2024-03-25T00:35:25;100236.88;;;8.64
54026;BMP280;74404;50.662;3.398;2024-03-25T00:37:50;100233.44;;;8.64
54026;BMP280;74404;50.662;3.398;2024-03-25T00:40:16;100230.78;;;8.64
54026;BMP280;74404;50.662;3.398;2024-03-25T00:42:41;100221.38;;;8.57
54026;BMP280;74404;50.662;3.398;2024-03-25T00:45:07;100227.38;;;8.63
54026;BMP280;74404;50.662;3.398;2024-03-25T00:47:33;100221.09;;;8.59
54026;BMP280;74404;50.662;3.398;2024-03-25T00:49:58;100220.28;;;8.58
54026;BMP280;74404;50.662;3.398;2024-03-25T00:52:24;100225.31;;;8.60
54026;BMP280;74404;50.662;3.398;2024-03-25T00:54:49;100222.66;;;8.60
54026;BMP280;74404;50.662;3.398;2024-03-25T00:57:15;100218.47;;;8.59
54026;BMP280;74404;50.662;3.398;2024-03-25T00:59:41;100206.56;;;8.56
54026;BMP280;74404;50.662;3.398;2024-03-25T01:02:06;100211.84;;;8.56
54026;BMP280;74404;50.662;3.398;2024-03-25T01:04:31;100210.00;;;8.57
54026;BMP280;74404;50.662;3.398;2024-03-25T01:06:58;100218.50;;;8.54
54026;BMP280;74404;50.662;3.398;2024-03-25T01:09:23;100215.88;;;8.54
54026;BMP280;74404;50.662;3.398;2024-03-25T01:11:50;100207.13;;;8.53
54026;BMP280;74404;50.662;3.398;2024-03-25T01:14:16;100205.28;;;8.54
54026;BMP280;74404;50.662;3.398;2024-03-25T01:16:41;100214.78;;;8.55
54026;BMP280;74404;50.662;3.398;2024-03-25T01:19:08;100208.44;;;8.56
54026;BMP280;74404;50.662;3.398;2024-03-25T01:21:33;100209.00;;;8.53
54026;BMP280;74404;50.662;3.398;2024-03-25T01:24:00;100200.00;;;8.54
54026;BMP280;74404;50.662;3.398;2024-03-25T01:26:25;100197.13;;;8.50
54026;BMP280;74404;50.662;3.398;2024-03-25T01:28:52;100199.00;;;8.50
54026;BMP280;74404;50.662;3.398;2024-03-25T01:31:17;100196.06;;;8.51
54026;BMP280;74404;50.662;3.398;2024-03-25T01:33:43;100196.84;;;8.52
54026;BMP280;74404;50.662;3.398;2024-03-25T01:36:08;100191.06;;;8.50
54026;BMP280;74404;50.662;3.398;2024-03-25T01:38:36;100191.84;;;8.50
54026;BMP280;74404;50.662;3.398;2024-03-25T01:41:21;100185.78;;;8.50
54026;BMP280;74404;50.662;3.398;2024-03-25T01:43:50;100179.72;;;8.49
54026;BMP280;74404;50.662;3.398;2024-03-25T01:46:18;100181.84;;;8.47
54026;BMP280;74404;50.662;3.398;2024-03-25T01:48:46;100174.69;;;8.48
54026;BMP280;74404;50.662;3.398;2024-03-25T01:51:14;100177.63;;;8.46
54026;BMP280;74404;50.662;3.398;2024-03-25T01:53:42;100177.63;;;8.46
54026;BMP280;74404;50.662;3.398;2024-03-25T01:56:08;100161.25;;;8.44
54026;BMP280;74404;50.662;3.398;2024-03-25T01:58:34;100162.03;;;8.45
54026;BMP280;74404;50.662;3.398;2024-03-25T02:00:59;100156.75;;;8.45
54026;BMP280;74404;50.662;3.398;2024-03-25T02:03:29;100157.03;;;8.43
54026;BMP280;74404;50.662;3.398;2024-03-25T02:05:58;100163.69;;;8.40
54026;BMP280;74404;50.662;3.398;2024-03-25T02:08:26;100156.06;;;8.39
54026;BMP280;74404;50.662;3.398;2024-03-25T02:10:54;100148.13;;;8.39
54026;BMP280;74404;50.662;3.398;2024-03-25T02:13:21;100142.81;;;8.39
54026;BMP280;74404;50.662;3.398;2024-03-25T02:15:46;100145.47;;;8.39
54026;BMP280;74404;50.662;3.398;2024-03-25T02:18:12;100146.53;;;8.38
54026;BMP280;74404;50.662;3.398;2024-03-25T02:20:38;100146.81;;;8.36
54026;BMP280;74404;50.662;3.398;2024-03-25T02:23:04;100143.66;;;8.34
54026;BMP280;74404;50.662;3.398;2024-03-25T02:25:31;100138.66;;;8.33
54026;BMP280;74404;50.662;3.398;2024-03-25T02:27:58;100140.50;;;8.32
54026;BMP280;74404;50.662;3.398;2024-03-25T02:30:23;100134.44;;;8.32
54026;BMP280;74404;50.662;3.398;2024-03-25T02:32:49;100129.63;;;8.34
54026;BMP280;74404;50.662;3.398;2024-03-25T02:35:15;100123.06;;;8.31
54026;BMP280;74404;50.662;3.398;2024-03-25T02:37:42;100122.28;;;8.31
54026;BMP280;74404;50.662;3.398;2024-03-25T02:40:08;100112.03;;;8.29
54026;BMP280;74404;50.662;3.398;2024-03-25T02:42:35;100115.91;;;8.32
54026;BMP280;74404;50.662;3.398;2024-03-25T02:45:02;100115.72;;;8.28
54026;BMP280;74404;50.662;3.398;2024-03-25T02:47:27;100120.53;;;8.26
54026;BMP280;74404;50.662;3.398;2024-03-25T02:49:53;100114.66;;;8.29
54026;BMP280;74404;50.662;3.398;2024-03-25T02:52:19;100110.94;;;8.30
54026;BMP280;74404;50.662;3.398;2024-03-25T02:54:45;100111.50;;;8.27
54026;BMP280;74404;50.662;3.398;2024-03-25T02:57:11;100106.50;;;8.26
54026;BMP280;74404;50.662;3.398;2024-03-25T02:59:36;100103.34;;;8.24
54026;BMP280;74404;50.662;3.398;2024-03-25T03:02:02;100099.16;;;8.23
54026;BMP280;74404;50.662;3.398;2024-03-25T03:04:27;100096.78;;;8.21
54026;BMP280;74404;50.662;3.398;2024-03-25T03:06:53;100102.84;;;8.21
54026;BMP280;74404;50.662;3.398;2024-03-25T03:09:18;100098.16;;;8.18
54026;BMP280;74404;50.662;3.398;2024-03-25T03:11:44;100106.56;;;8.20
54026;BMP280;74404;50.662;3.398;2024-03-25T03:14:09;100103.44;;;8.18
54026;BMP280;74404;50.662;3.398;2024-03-25T03:16:35;100096.56;;;8.17
54026;BMP280;74404;50.662;3.398;2024-03-25T03:19:01;100082.84;;;8.15
54026;BMP280;74404;50.662;3.398;2024-03-25T03:21:26;100092.38;;;8.16
54026;BMP280;74404;50.662;3.398;2024-03-25T03:23:51;100102.44;;;8.14
54026;BMP280;74404;50.662;3.398;2024-03-25T03:26:17;100101.06;;;8.17
54026;BMP280;74404;50.662;3.398;2024-03-25T03:28:42;100100.28;;;8.16
54026;BMP280;74404;50.662;3.398;2024-03-25T03:31:08;100096.88;;;8.16
54026;BMP280;74404;50.662;3.398;2024-03-25T03:33:34;100088.97;;;8.11
54026;BMP280;74404;50.662;3.398;2024-03-25T03:35:59;100091.34;;;8.12
54026;BMP280;74404;50.662;3.398;2024-03-25T03:38:25;100095.56;;;8.13
54026;BMP280;74404;50.662;3.398;2024-03-25T03:43:23;100072.84;;;8.12
54026;BMP280;74404;50.662;3.398;2024-03-25T03:45:48;100071.09;;;8.08
54026;BMP280;74404;50.662;3.398;2024-03-25T03:48:14;100072.44;;;8.05
54026;BMP280;74404;50.662;3.398;2024-03-25T03:50:39;100067.34;;;8.09
54026;BMP280;74404;50.662;3.398;2024-03-25T03:53:04;100067.13;;;8.05
54026;BMP280;74404;50.662;3.398;2024-03-25T03:55:30;100079.00;;;8.08
54026;BMP280;74404;50.662;3.398;2024-03-25T03:57:55;100072.69;;;8.04
54026;BMP280;74404;50.662;3.398;2024-03-25T04:00:21;100078.75;;;8.04
54026;BMP280;74404;50.662;3.398;2024-03-25T04:02:46;100086.41;;;8.06
54026;BMP280;74404;50.662;3.398;2024-03-25T04:05:12;100072.44;;;8.05
54026;BMP280;74404;50.662;3.398;2024-03-25T04:07:37;100077.72;;;8.05
54026;BMP280;74404;50.662;3.398;2024-03-25T04:10:04;100078.75;;;8.04
54026;BMP280;74404;50.662;3.398;2024-03-25T04:12:30;100082.22;;;8.05
54026;BMP280;74404;50.662;3.398;2024-03-25T04:14:55;100069.56;;;8.01
54026;BMP280;74404;50.662;3.398;2024-03-25T04:17:22;100063.78;;;7.99
54026;BMP280;74404;50.662;3.398;2024-03-25T04:19:49;100065.84;;;8.02
54026;BMP280;74404;50.662;3.398;2024-03-25T04:22:14;100068.75;;;8.01
54026;BMP280;74404;50.662;3.398;2024-03-25T04:24:40;100062.69;;;8.00
54026;BMP280;74404;50.662;3.398;2024-03-25T04:27:05;100064.56;;;8.00
54026;BMP280;74404;50.662;3.398;2024-03-25T04:29:31;100056.16;;;7.98
54026;BMP280;74404;50.662;3.398;2024-03-25T04:31:56;100049.28;;;7.97
54026;BMP280;74404;50.662;3.398;2024-03-25T04:34:22;100053.97;;;8.00
54026;BMP280;74404;50.662;3.398;2024-03-25T04:36:48;100048.25;;;7.93
54026;BMP280;74404;50.662;3.398;2024-03-25T04:39:14;100047.19;;;7.94
54026;BMP280;74404;50.662;3.398;2024-03-25T04:41:40;100046.41;;;7.93
54026;BMP280;74404;50.662;3.398;2024-03-25T04:44:06;100053.25;;;7.94
54026;BMP280;74404;50.662;3.398;2024-03-25T04:46:31;100049.84;;;7.94
54026;BMP280;74404;50.662;3.398;2024-03-25T04:48:57;100047.19;;;7.94
54026;BMP280;74404;50.662;3.398;2024-03-25T04:51:22;100042.47;;;7.91
54026;BMP280;74404;50.662;3.398;2024-03-25T04:53:48;100040.91;;;7.90
54026;BMP280;74404;50.662;3.398;2024-03-25T04:56:13;100041.91;;;7.94
54026;BMP280;74404;50.662;3.398;2024-03-25T04:58:39;100035.03;;;7.93
54026;BMP280;74404;50.662;3.398;2024-03-25T05:01:04;100036.41;;;7.90
54026;BMP280;74404;50.662;3.398;2024-03-25T05:03:30;100041.41;;;7.92
54026;BMP280;74404;50.662;3.398;2024-03-25T05:05:55;100040.91;;;7.90
54026;BMP280;74404;50.662;3.398;2024-03-25T05:08:22;100040.38;;;7.88
54026;BMP280;74404;50.662;3.398;2024-03-25T05:10:47;100038.38;;;7.85
54026;BMP280;74404;50.662;3.398;2024-03-25T05:13:13;100048.31;;;7.88
54026;BMP280;74404;50.662;3.398;2024-03-25T05:15:38;100042.75;;;7.89
54026;BMP280;74404;50.662;3.398;2024-03-25T05:18:04;100041.50;;;7.87
54026;BMP280;74404;50.662;3.398;2024-03-25T05:20:29;100036.50;;;7.85
54026;BMP280;74404;50.662;3.398;2024-03-25T05:22:54;100036.78;;;7.84
54026;BMP280;74404;50.662;3.398;2024-03-25T05:25:20;100032.56;;;7.82
54026;BMP280;74404;50.662;3.398;2024-03-25T05:27:49;100034.19;;;7.78
54026;BMP280;74404;50.662;3.398;2024-03-25T05:30:15;100039.97;;;7.80
54026;BMP280;74404;50.662;3.398;2024-03-25T05:32:40;100036.03;;;7.78
54026;BMP280;74404;50.662;3.398;2024-03-25T05:35:06;100029.97;;;7.77
54026;BMP280;74404;50.662;3.398;2024-03-25T05:37:32;100037.88;;;7.77
54026;BMP280;74404;50.662;3.398;2024-03-25T05:39:59;100042.41;;;7.77
54026;BMP280;74404;50.662;3.398;2024-03-25T05:42:24;100034.19;;;7.78
54026;BMP280;74404;50.662;3.398;2024-03-25T05:44:50;100032.13;;;7.75
54026;BMP280;74404;50.662;3.398;2024-03-25T05:47:15;100034.78;;;7.75
54026;BMP280;74404;50.662;3.398;2024-03-25T05:49:41;100038.66;;;7.78
54026;BMP280;74404;50.662;3.398;2024-03-25T05:52:06;100030.06;;;7.72
54026;BMP280;74404;50.662;3.398;2024-03-25T05:54:32;100027.91;;;7.74
54026;BMP280;74404;50.662;3.398;2024-03-25T05:56:57;100031.06;;;7.76
54026;BMP280;74404;50.662;3.398;2024-03-25T05:59:23;100024.50;;;7.74
54026;BMP280;74404;50.662;3.398;2024-03-25T06:01:48;100022.13;;;7.72
54026;BMP280;74404;50.662;3.398;2024-03-25T06:04:14;100023.72;;;7.73
54026;BMP280;74404;50.662;3.398;2024-03-25T06:06:39;100014.97;;;7.73
54026;BMP280;74404;50.662;3.398;2024-03-25T06:09:05;100014.53;;;7.66
54026;BMP280;74404;50.662;3.398;2024-03-25T06:11:31;100020.53;;;7.71
54026;BMP280;74404;50.662;3.398;2024-03-25T06:13:56;100009.47;;;7.69
54026;BMP280;74404;50.662;3.398;2024-03-25T06:16:21;100012.34;;;7.73
54026;BMP280;74404;50.662;3.398;2024-03-25T06:18:47;100007.34;;;7.71
54026;BMP280;74404;50.662;3.398;2024-03-25T06:21:12;100008.41;;;7.70
54026;BMP280;74404;50.662;3.398;2024-03-25T06:23:38;100012.34;;;7.73
54026;BMP280;74404;50.662;3.398;2024-03-25T06:26:04;100001.78;;;7.73
54026;BMP280;74404;50.662;3.398;2024-03-25T06:28:29;99996.50;;;7.73
54026;BMP280;74404;50.662;3.398;2024-03-25T06:30:55;99992.56;;;7.70
54026;BMP280;74404;50.662;3.398;2024-03-25T06:33:39;99988.06;;;7.71
54026;BMP280;74404;50.662;3.398;2024-03-25T06:36:23;99982.00;;;7.70
54026;BMP280;74404;50.662;3.398;2024-03-25T06:38:48;99991.00;;;7.69
54026;BMP280;74404;50.662;3.398;2024-03-25T06:41:14;99980.91;;;7.71
54026;BMP280;74404;50.662;3.398;2024-03-25T06:43:40;99983.28;;;7.73
54026;BMP280;74404;50.662;3.398;2024-03-25T06:46:06;99987.00;;;7.72
54026;BMP280;74404;50.662;3.398;2024-03-25T06:48:32;99981.72;;;7.72
54026;BMP280;74404;50.662;3.398;2024-03-25T06:51:00;99987.00;;;7.72
54026;BMP280;74404;50.662;3.398;2024-03-25T06:53:25;99985.44;;;7.71
54026;BMP280;74404;50.662;3.398;2024-03-25T06:55:52;99982.50;;;7.72
54026;BMP280;74404;50.662;3.398;2024-03-25T06:58:19;99979.88;;;7.72
54026;BMP280;74404;50.662;3.398;2024-03-25T07:00:45;99975.34;;;7.73
54026;BMP280;74404;50.662;3.398;2024-03-25T07:03:10;99975.34;;;7.73
54026;BMP280;74404;50.662;3.398;2024-03-25T07:05:36;99974.09;;;7.70
54026;BMP280;74404;50.662;3.398;2024-03-25T07:08:01;99978.28;;;7.71
54026;BMP280;74404;50.662;3.398;2024-03-25T07:10:27;99971.66;;;7.74
54026;BMP280;74404;50.662;3.398;2024-03-25T07:12:53;99976.16;;;7.73
54026;BMP280;74404;50.662;3.398;2024-03-25T07:15:18;99978.00;;;7.73
54026;BMP280;74404;50.662;3.398;2024-03-25T07:17:44;99972.16;;;7.76
54026;BMP280;74404;50.662;3.398;2024-03-25T07:20:09;99979.09;;;7.72
54026;BMP280;74404;50.662;3.398;2024-03-25T07:22:36;99987.50;;;7.74
54026;BMP280;74404;50.662;3.398;2024-03-25T07:25:01;99975.09;;;7.74
54026;BMP280;74404;50.662;3.398;2024-03-25T07:27:27;99979.00;;;7.77
54026;BMP280;74404;50.662;3.398;2024-03-25T07:29:52;99978.53;;;7.75
54026;BMP280;74404;50.662;3.398;2024-03-25T07:32:17;99985.06;;;7.77
54026;BMP280;74404;50.662;3.398;2024-03-25T07:34:43;99975.56;;;7.76
54026;BMP280;74404;50.662;3.398;2024-03-25T07:37:09;99977.63;;;7.79
54026;BMP280;74404;50.662;3.398;2024-03-25T07:39:34;99981.94;;;7.75
54026;BMP280;74404;50.662;3.398;2024-03-25T07:41:59;99988.47;;;7.78
54026;BMP280;74404;50.662;3.398;2024-03-25T07:44:25;99979.00;;;7.77
54026;BMP280;74404;50.662;3.398;2024-03-25T07:46:50;99986.38;;;7.80
54026;BMP280;74404;50.662;3.398;2024-03-25T07:49:17;99989.78;;;7.80
54026;BMP280;74404;50.662;3.398;2024-03-25T07:51:42;99981.84;;;7.80
54026;BMP280;74404;50.662;3.398;2024-03-25T07:54:07;99984.78;;;7.79
54026;BMP280;74404;50.662;3.398;2024-03-25T07:56:35;99990.28;;;7.82
54026;BMP280;74404;50.662;3.398;2024-03-25T07:59:02;99980.28;;;7.79
54026;BMP280;74404;50.662;3.398;2024-03-25T08:01:29;99980.53;;;7.83
54026;BMP280;74404;50.662;3.398;2024-03-25T08:03:54;99975.72;;;7.85
54026;BMP280;74404;50.662;3.398;2024-03-25T08:06:20;99989.22;;;7.84
54026;BMP280;74404;50.662;3.398;2024-03-25T08:08:47;99967.31;;;7.83
54026;BMP280;74404;50.662;3.398;2024-03-25T08:11:12;99984.44;;;7.86
54026;BMP280;74404;50.662;3.398;2024-03-25T08:13:37;99967.03;;;7.85
54026;BMP280;74404;50.662;3.398;2024-03-25T08:16:03;99975.47;;;7.87
54026;BMP280;74404;50.662;3.398;2024-03-25T08:18:29;99972.00;;;7.86
54026;BMP280;74404;50.662;3.398;2024-03-25T08:20:54;99975.47;;;7.87
54026;BMP280;74404;50.662;3.398;2024-03-25T08:23:20;99976.22;;;7.87
54026;BMP280;74404;50.662;3.398;2024-03-25T08:25:45;99991.50;;;7.90
54026;BMP280;74404;50.662;3.398;2024-03-25T08:28:11;99974.34;;;7.88
54026;BMP280;74404;50.662;3.398;2024-03-25T08:30:36;99971.13;;;7.91
54026;BMP280;74404;50.662;3.398;2024-03-25T08:33:02;99969.31;;;7.91
54026;BMP280;74404;50.662;3.398;2024-03-25T08:35:27;99965.56;;;7.92
54026;BMP280;74404;50.662;3.398;2024-03-25T08:37:53;99976.13;;;7.92
54026;BMP280;74404;50.662;3.398;2024-03-25T08:40:18;99965.56;;;7.92
54026;BMP280;74404;50.662;3.398;2024-03-25T08:42:44;99965.56;;;7.92
54026;BMP280;74404;50.662;3.398;2024-03-25T08:45:09;99960.78;;;7.94
54026;BMP280;74404;50.662;3.398;2024-03-25T08:47:35;99966.88;;;7.95
54026;BMP280;74404;50.662;3.398;2024-03-25T08:50:01;99963.16;;;7.96
54026;BMP280;74404;50.662;3.398;2024-03-25T08:52:27;99967.84;;;7.99
54026;BMP280;74404;50.662;3.398;2024-03-25T08:54:52;99967.06;;;7.98
54026;BMP280;74404;50.662;3.398;2024-03-25T08:57:18;99963.66;;;7.98
54026;BMP280;74404;50.662;3.398;2024-03-25T08:59:43;99957.56;;;7.97
54026;BMP280;74404;50.662;3.398;2024-03-25T09:02:09;99960.72;;;7.99
54026;BMP280;74404;50.662;3.398;2024-03-25T09:04:34;99943.78;;;8.00
54026;BMP280;74404;50.662;3.398;2024-03-25T09:07:01;99954.06;;;8.02
54026;BMP280;74404;50.662;3.398;2024-03-25T09:09:28;99948.00;;;8.01
54026;BMP280;74404;50.662;3.398;2024-03-25T09:12:12;99953.78;;;8.04
54026;BMP280;74404;50.662;3.398;2024-03-25T09:14:38;99954.28;;;8.06
54026;BMP280;74404;50.662;3.398;2024-03-25T09:17:04;99948.69;;;8.07
54026;BMP280;74404;50.662;3.398;2024-03-25T09:19:30;99947.16;;;8.06
54026;BMP280;74404;50.662;3.398;2024-03-25T09:21:55;99945.78;;;8.09
54026;BMP280;74404;50.662;3.398;2024-03-25T09:24:21;99953.41;;;8.10
54026;BMP280;74404;50.662;3.398;2024-03-25T09:26:49;99942.38;;;8.08
54026;BMP280;74404;50.662;3.398;2024-03-25T09:29:15;99940.97;;;8.11
54026;BMP280;74404;50.662;3.398;2024-03-25T09:31:41;99934.63;;;8.12
54026;BMP280;74404;50.662;3.398;2024-03-25T09:34:07;99930.91;;;8.13
54026;BMP280;74404;50.662;3.398;2024-03-25T09:36:33;99931.41;;;8.15
54026;BMP280;74404;50.662;3.398;2024-03-25T09:38:58;99928.75;;;8.15
54026;BMP280;74404;50.662;3.398;2024-03-25T09:41:24;99914.16;;;8.17
54026;BMP280;74404;50.662;3.398;2024-03-25T09:43:54;99899.91;;;8.18
54026;BMP280;74404;50.662;3.398;2024-03-25T09:46:22;99889.03;;;8.20
54026;BMP280;74404;50.662;3.398;2024-03-25T09:48:49;99892.63;;;8.24
54026;BMP280;74404;50.662;3.398;2024-03-25T09:51:15;99885.50;;;8.25
54026;BMP280;74404;50.662;3.398;2024-03-25T09:53:41;99877.78;;;8.28
54026;BMP280;74404;50.662;3.398;2024-03-25T09:56:07;99869.56;;;8.30
54026;BMP280;74404;50.662;3.398;2024-03-25T09:58:33;99864.75;;;8.32
54026;BMP280;74404;50.662;3.398;2024-03-25T10:00:58;99854.94;;;8.32
54026;BMP280;74404;50.662;3.398;2024-03-25T10:03:24;99854.09;;;8.37
54026;BMP280;74404;50.662;3.398;2024-03-25T10:05:50;99836.88;;;8.39
54026;BMP280;74404;50.662;3.398;2024-03-25T10:08:22;99841.88;;;8.41
54026;BMP280;74404;50.662;3.398;2024-03-25T10:10:47;99850.75;;;8.45
54026;BMP280;74404;50.662;3.398;2024-03-25T10:13:13;99849.41;;;8.48
54026;BMP280;74404;50.662;3.398;2024-03-25T10:15:38;99854.88;;;8.51
54026;BMP280;74404;50.662;3.398;2024-03-25T10:18:04;99860.34;;;8.55
54026;BMP280;74404;50.662;3.398;2024-03-25T10:20:29;99851.84;;;8.58
54026;BMP280;74404;50.662;3.398;2024-03-25T10:22:55;99838.31;;;8.59
54026;BMP280;74404;50.662;3.398;2024-03-25T10:25:28;99837.72;;;8.63
54026;BMP280;74404;50.662;3.398;2024-03-25T10:30:19;99827.81;;;8.68
54026;BMP280;74404;50.662;3.398;2024-03-25T10:32:45;99829.56;;;8.73
54026;BMP280;74404;50.662;3.398;2024-03-25T10:35:11;99823.69;;;8.76
54026;BMP280;74404;50.662;3.398;2024-03-25T10:37:38;99822.63;;;8.77
54026;BMP280;74404;50.662;3.398;2024-03-25T10:40:04;99820.19;;;8.80
54026;BMP280;74404;50.662;3.398;2024-03-25T10:42:30;99810.84;;;8.83
54026;BMP280;74404;50.662;3.398;2024-03-25T10:44:57;99804.97;;;8.86
54026;BMP280;74404;50.662;3.398;2024-03-25T10:47:25;99818.66;;;8.88
54026;BMP280;74404;50.662;3.398;2024-03-25T10:49:57;99801.16;;;8.92
54026;BMP280;74404;50.662;3.398;2024-03-25T10:52:27;99812.38;;;8.98
54026;BMP280;74404;50.662;3.398;2024-03-25T10:54:55;99815.53;;;9.00
54026;BMP280;74404;50.662;3.398;2024-03-25T10:57:22;99804.31;;;9.03
54026;BMP280;74404;50.662;3.398;2024-03-25T10:59:49;99792.94;;;9.02
54026;BMP280;74404;50.662;3.398;2024-03-25T11:02:15;99800.00;;;9.07
54026;BMP280;74404;50.662;3.398;2024-03-25T11:04:43;99798.13;;;9.08
54026;BMP280;74404;50.662;3.398;2024-03-25T11:07:15;99796.78;;;9.10
54026;BMP280;74404;50.662;3.398;2024-03-25T11:09:42;99796.63;;;9.15
54026;BMP280;74404;50.662;3.398;2024-03-25T11:12:12;99790.28;;;9.16
54026;BMP280;74404;50.662;3.398;2024-03-25T11:14:38;99789.19;;;9.17
54026;BMP280;74404;50.662;3.398;2024-03-25T11:17:17;99787.97;;;9.24
54026;BMP280;74404;50.662;3.398;2024-03-25T11:19:42;99783.75;;;9.23
54026;BMP280;74404;50.662;3.398;2024-03-25T11:22:09;99789.75;;;9.28
54026;BMP280;74404;50.662;3.398;2024-03-25T11:24:43;99775.41;;;9.29
54026;BMP280;74404;50.662;3.398;2024-03-25T11:27:09;99777.75;;;9.31
54026;BMP280;74404;50.662;3.398;2024-03-25T11:29:35;99771.84;;;9.34
54026;BMP280;74404;50.662;3.398;2024-03-25T11:32:05;99776.06;;;9.35
54026;BMP280;74404;50.662;3.398;2024-03-25T11:34:30;99758.50;;;9.39
54026;BMP280;74404;50.662;3.398;2024-03-25T11:36:56;99758.19;;;9.40
54026;BMP280;74404;50.662;3.398;2024-03-25T11:39:23;99753.34;;;9.43
54026;BMP280;74404;50.662;3.398;2024-03-25T11:41:49;99748.84;;;9.43
54026;BMP280;74404;50.662;3.398;2024-03-25T11:44:16;99749.63;;;9.44
54026;BMP280;74404;50.662;3.398;2024-03-25T11:46:43;99735.50;;;9.48
54026;BMP280;74404;50.662;3.398;2024-03-25T11:49:15;99736.72;;;9.51
54026;BMP280;74404;50.662;3.398;2024-03-25T11:51:43;99728.78;;;9.51
54026;BMP280;74404;50.662;3.398;2024-03-25T11:54:12;99720.22;;;9.54
54026;BMP280;74404;50.662;3.398;2024-03-25T11:56:37;99721.50;;;9.56
54026;BMP280;74404;50.662;3.398;2024-03-25T11:59:03;99714.81;;;9.59
54026;BMP280;74404;50.662;3.398;2024-03-25T12:01:30;99714.47;;;9.60
54026;BMP280;74404;50.662;3.398;2024-03-25T12:03:55;99708.09;;;9.61
54026;BMP280;74404;50.662;3.398;2024-03-25T12:06:21;99700.63;;;9.64
54026;BMP280;74404;50.662;3.398;2024-03-25T12:08:46;99695.50;;;9.67
54026;BMP280;74404;50.662;3.398;2024-03-25T12:11:32;99699.09;;;9.71
54026;BMP280;74404;50.662;3.398;2024-03-25T12:13:59;99697.13;;;9.77
54026;BMP280;74404;50.662;3.398;2024-03-25T12:16:25;99691.47;;;9.78
54026;BMP280;74404;50.662;3.398;2024-03-25T12:18:50;99681.84;;;9.83
54026;BMP280;74404;50.662;3.398;2024-03-25T12:21:17;99670.31;;;9.87
54026;BMP280;74404;50.662;3.398;2024-03-25T12:23:43;99663.47;;;9.86
54026;BMP280;74404;50.662;3.398;2024-03-25T12:26:13;99663.31;;;9.91
54026;BMP280;74404;50.662;3.398;2024-03-25T12:28:39;99652.09;;;9.94
54026;BMP280;74404;50.662;3.398;2024-03-25T12:31:07;99651.63;;;10.01
54026;BMP280;74404;50.662;3.398;2024-03-25T12:33:42;99644.97;;;10.04
54026;BMP280;74404;50.662;3.398;2024-03-25T12:36:09;99646.47;;;10.05
54026;BMP280;74404;50.662;3.398;2024-03-25T12:38:36;99639.78;;;10.07
54026;BMP280;74404;50.662;3.398;2024-03-25T12:41:08;99632.16;;;10.06
54026;BMP280;74404;50.662;3.398;2024-03-25T12:43:35;99622.00;;;10.08
54026;BMP280;74404;50.662;3.398;2024-03-25T12:46:01;99618.88;;;10.14
54026;BMP280;74404;50.662;3.398;2024-03-25T12:48:29;99610.78;;;10.19
54026;BMP280;74404;50.662;3.398;2024-03-25T12:50:54;99608.28;;;10.23
54026;BMP280;74404;50.662;3.398;2024-03-25T12:53:20;99601.13;;;10.24
54026;BMP280;74404;50.662;3.398;2024-03-25T12:55:48;99600.16;;;10.28
54026;BMP280;74404;50.662;3.398;2024-03-25T12:58:14;99578.31;;;10.31
54026;BMP280;74404;50.662;3.398;2024-03-25T13:00:40;99581.16;;;10.35
54026;BMP280;74404;50.662;3.398;2024-03-25T13:03:07;99575.22;;;10.38
54026;BMP280;74404;50.662;3.398;2024-03-25T13:05:34;99563.34;;;10.44
54026;BMP280;74404;50.662;3.398;2024-03-25T13:08:00;99560.03;;;10.47
54026;BMP280;74404;50.662;3.398;2024-03-25T13:10:26;99560.50;;;10.49
54026;BMP280;74404;50.662;3.398;2024-03-25T13:12:51;99559.88;;;10.52
54026;BMP280;74404;50.662;3.398;2024-03-25T13:15:17;99552.53;;;10.58
54026;BMP280;74404;50.662;3.398;2024-03-25T13:17:42;99554.56;;;10.61
54026;BMP280;74404;50.662;3.398;2024-03-25T13:20:08;99549.41;;;10.65
54026;BMP280;74404;50.662;3.398;2024-03-25T13:22:34;99548.75;;;10.68
54026;BMP280;74404;50.662;3.398;2024-03-25T13:25:00;99539.09;;;10.72
54026;BMP280;74404;50.662;3.398;2024-03-25T13:27:26;99533.13;;;10.75
54026;BMP280;74404;50.662;3.398;2024-03-25T13:29:51;99531.41;;;10.79
54026;BMP280;74404;50.662;3.398;2024-03-25T13:32:20;99525.44;;;10.82
54026;BMP280;74404;50.662;3.398;2024-03-25T13:34:46;99525.13;;;10.84
54026;BMP280;74404;50.662;3.398;2024-03-25T13:37:12;99520.88;;;10.91
54026;BMP280;74404;50.662;3.398;2024-03-25T13:39:37;99517.44;;;10.91
54026;BMP280;74404;50.662;3.398;2024-03-25T13:42:03;99509.63;;;10.94
54026;BMP280;74404;50.662;3.398;2024-03-25T13:44:29;99511.19;;;10.95
54026;BMP280;74404;50.662;3.398;2024-03-25T13:46:55;99506.69;;;10.96
54026;BMP280;74404;50.662;3.398;2024-03-25T13:49:20;99491.16;;;10.98
54026;BMP280;74404;50.662;3.398;2024-03-25T13:51:48;99492.41;;;11.00
54026;BMP280;74404;50.662;3.398;2024-03-25T13:54:13;99478.50;;;11.04
54026;BMP280;74404;50.662;3.398;2024-03-25T13:56:39;99466.13;;;11.08
54026;BMP280;74404;50.662;3.398;2024-03-25T13:59:12;99470.31;;;11.09
54026;BMP280;74404;50.662;3.398;2024-03-25T14:01:37;99462.38;;;11.09
54026;BMP280;74404;50.662;3.398;2024-03-25T14:04:03;99448.91;;;11.14
54026;BMP280;74404;50.662;3.398;2024-03-25T14:06:29;99449.81;;;11.18
54026;BMP280;74404;50.662;3.398;2024-03-25T14:08:55;99449.50;;;11.19
54026;BMP280;74404;50.662;3.398;2024-03-25T14:11:20;99434.34;;;11.20
54026;BMP280;74404;50.662;3.398;2024-03-25T14:13:46;99433.03;;;11.26